sensor_id;sensor_type;location;lat;lon;timestamp;temperature;humidity
15044;DHT22;7619;48.562;8.910;2023-01-05T00:00:15;9.80;99.90
15044;DHT22;7619;48.562;8.910;2023-01-05T00:02:44;9.80;99.90
15044;DHT22;7619;48.562;8.910;2023-01-05T00:05:13;9.80;99.90
15044;DHT22;7619;48.562;8.910;2023-01-05T00:07:42;9.80;99.90
15044;DHT22;7619;48.562;8.910;2023-01-05T00:10:11;9.80;99.90
15044;DHT22;7619;48.562;8.910;2023-01-05T00:12:59;9.80;99.90
15044;DHT22;7619;48.562;8.910;2023-01-05T00:15:46;9.80;99.90
15044;DHT22;7619;48.562;8.910;2023-01-05T00:18:32;9.70;99.90
15044;DHT22;7619;48.562;8.910;2023-01-05T00:21:30;9.70;99.90
15044;DHT22;7619;48.562;8.910;2023-01-05T00:24:16;9.70;99.90
15044;DHT22;7619;48.562;8.910;2023-01-05T00:26:45;9.70;99.90
15044;DHT22;7619;48.562;8.910;2023-01-05T00:29:14;9.70;99.90
15044;DHT22;7619;48.562;8.910;2023-01-05T00:31:43;9.70;99.90
15044;DHT22;7619;48.562;8.910;2023-01-05T00:34:12;9.70;99.90
15044;DHT22;7619;48.562;8.910;2023-01-05T00:36:41;9.70;99.90
15044;DHT22;7619;48.562;8.910;2023-01-05T00:39:10;9.60;99.90
15044;DHT22;7619;48.562;8.910;2023-01-05T00:41:39;9.50;99.90
15044;DHT22;7619;48.562;8.910;2023-01-05T00:44:08;9.50;99.90
15044;DHT22;7619;48.562;8.910;2023-01-05T00:46:37;9.50;99.90
15044;DHT22;7619;48.562;8.910;2023-01-05T00:49:06;9.40;99.90
15044;DHT22;7619;48.562;8.910;2023-01-05T00:51:35;9.40;99.90
15044;DHT22;7619;48.562;8.910;2023-01-05T00:54:04;9.40;99.90
15044;DHT22;7619;48.562;8.910;2023-01-05T00:56:33;9.40;99.90
15044;DHT22;7619;48.562;8.910;2023-01-05T00:59:02;9.50;99.90
15044;DHT22;7619;48.562;8.910;2023-01-05T01:01:31;9.50;99.90
15044;DHT22;7619;48.562;8.910;2023-01-05T01:04:00;9.50;99.90
15044;DHT22;7619;48.562;8.910;2023-01-05T01:06:29;9.50;99.90
15044;DHT22;7619;48.562;8.910;2023-01-05T01:08:58;9.50;99.90
15044;DHT22;7619;48.562;8.910;2023-01-05T01:11:27;9.50;99.90
15044;DHT22;7619;48.562;8.910;2023-01-05T01:13:56;9.50;99.90
15044;DHT22;7619;48.562;8.910;2023-01-05T01:16:25;9.50;99.90
15044;DHT22;7619;48.562;8.910;2023-01-05T01:18:55;9.50;99.90
15044;DHT22;7619;48.562;8.910;2023-01-05T01:21:24;9.50;99.90
15044;DHT22;7619;48.562;8.910;2023-01-05T01:23:53;9.50;99.90
15044;DHT22;7619;48.562;8.910;2023-01-05T01:26:22;9.50;99.90
15044;DHT22;7619;48.562;8.910;2023-01-05T01:28:51;9.50;99.90
15044;DHT22;7619;48.562;8.910;2023-01-05T01:31:19;9.50;99.90
15044;DHT22;7619;48.562;8.910;2023-01-05T01:33:48;9.50;99.90
15044;DHT22;7619;48.562;8.910;2023-01-05T01:36:17;9.50;99.90
15044;DHT22;7619;48.562;8.910;2023-01-05T01:38:47;9.50;99.90
15044;DHT22;7619;48.562;8.910;2023-01-05T01:41:16;9.50;99.90
15044;DHT22;7619;48.562;8.910;2023-01-05T01:43:48;9.50;99.90
15044;DHT22;7619;48.562;8.910;2023-01-05T01:46:17;9.50;99.90
15044;DHT22;7619;48.562;8.910;2023-01-05T01:48:52;9.50;99.90
15044;DHT22;7619;48.562;8.910;2023-01-05T01:51:21;9.40;99.90
15044;DHT22;7619;48.562;8.910;2023-01-05T01:53:52;9.40;99.90
15044;DHT22;7619;48.562;8.910;2023-01-05T01:56:24;9.40;99.90
15044;DHT22;7619;48.562;8.910;2023-01-05T01:58:54;9.40;99.90
15044;DHT22;7619;48.562;8.910;2023-01-05T02:01:23;9.40;99.90
15044;DHT22;7619;48.562;8.910;2023-01-05T02:03:52;9.40;99.90
15044;DHT22;7619;48.562;8.910;2023-01-05T02:06:21;9.40;99.90
15044;DHT22;7619;48.562;8.910;2023-01-05T02:08:50;9.40;99.90
15044;DHT22;7619;48.562;8.910;2023-01-05T02:11:29;9.40;99.90
15044;DHT22;7619;48.562;8.910;2023-01-05T02:14:09;9.40;99.90
15044;DHT22;7619;48.562;8.910;2023-01-05T02:16:42;9.50;99.90
15044;DHT22;7619;48.562;8.910;2023-01-05T02:19:47;9.50;99.90
15044;DHT22;7619;48.562;8.910;2023-01-05T02:22:35;9.50;99.90
15044;DHT22;7619;48.562;8.910;2023-01-05T02:28:07;9.50;99.90
15044;DHT22;7619;48.562;8.910;2023-01-05T02:31:03;9.50;99.90
15044;DHT22;7619;48.562;8.910;2023-01-05T02:33:48;9.60;99.90
15044;DHT22;7619;48.562;8.910;2023-01-05T02:36:27;9.60;99.90
15044;DHT22;7619;48.562;8.910;2023-01-05T02:38:59;9.60;99.90
15044;DHT22;7619;48.562;8.910;2023-01-05T02:41:33;9.70;99.90
15044;DHT22;7619;48.562;8.910;2023-01-05T02:44:02;9.70;99.90
15044;DHT22;7619;48.562;8.910;2023-01-05T02:46:32;9.80;99.90
15044;DHT22;7619;48.562;8.910;2023-01-05T02:49:03;9.80;99.90
15044;DHT22;7619;48.562;8.910;2023-01-05T02:51:34;9.80;99.90
15044;DHT22;7619;48.562;8.910;2023-01-05T02:54:07;9.80;99.90
15044;DHT22;7619;48.562;8.910;2023-01-05T02:56:38;9.80;99.90
15044;DHT22;7619;48.562;8.910;2023-01-05T02:59:11;9.80;99.90
15044;DHT22;7619;48.562;8.910;2023-01-05T03:01:44;9.90;99.90
15044;DHT22;7619;48.562;8.910;2023-01-05T03:04:16;9.90;99.90
15044;DHT22;7619;48.562;8.910;2023-01-05T03:06:48;9.90;99.90
15044;DHT22;7619;48.562;8.910;2023-01-05T03:09:20;9.90;99.90
15044;DHT22;7619;48.562;8.910;2023-01-05T03:11:57;10.00;99.90
15044;DHT22;7619;48.562;8.910;2023-01-05T03:14:47;10.00;99.90
15044;DHT22;7619;48.562;8.910;2023-01-05T03:17:19;10.00;99.90
15044;DHT22;7619;48.562;8.910;2023-01-05T03:19:50;10.00;99.90
15044;DHT22;7619;48.562;8.910;2023-01-05T03:22:23;10.00;99.90
15044;DHT22;7619;48.562;8.910;2023-01-05T03:25:11;10.00;99.90
15044;DHT22;7619;48.562;8.910;2023-01-05T03:28:00;10.00;99.90
15044;DHT22;7619;48.562;8.910;2023-01-05T03:30:51;10.00;99.90
15044;DHT22;7619;48.562;8.910;2023-01-05T03:33:42;10.10;99.90
15044;DHT22;7619;48.562;8.910;2023-01-05T03:36:30;10.00;99.90
15044;DHT22;7619;48.562;8.910;2023-01-05T03:39:02;10.00;99.90
15044;DHT22;7619;48.562;8.910;2023-01-05T03:41:32;10.00;99.90
15044;DHT22;7619;48.562;8.910;2023-01-05T03:44:01;10.00;99.90
15044;DHT22;7619;48.562;8.910;2023-01-05T03:46:30;10.00;99.90
15044;DHT22;7619;48.562;8.910;2023-01-05T03:48:59;10.00;99.90
15044;DHT22;7619;48.562;8.910;2023-01-05T03:51:28;10.00;99.90
15044;DHT22;7619;48.562;8.910;2023-01-05T03:53:56;10.00;99.90
15044;DHT22;7619;48.562;8.910;2023-01-05T03:56:25;10.00;99.90
15044;DHT22;7619;48.562;8.910;2023-01-05T03:58:54;9.90;99.90
15044;DHT22;7619;48.562;8.910;2023-01-05T04:01:23;10.00;99.90
15044;DHT22;7619;48.562;8.910;2023-01-05T04:03:52;10.00;99.90
15044;DHT22;7619;48.562;8.910;2023-01-05T04:06:21;10.00;99.90
15044;DHT22;7619;48.562;8.910;2023-01-05T04:08:50;10.00;99.90
15044;DHT22;7619;48.562;8.910;2023-01-05T04:11:20;10.00;99.90
15044;DHT22;7619;48.562;8.910;2023-01-05T04:13:50;10.00;99.90
15044;DHT22;7619;48.562;8.910;2023-01-05T04:16:19;10.10;99.90
15044;DHT22;7619;48.562;8.910;2023-01-05T04:18:48;10.10;99.90
15044;DHT22;7619;48.562;8.910;2023-01-05T04:21:17;10.10;99.90
15044;DHT22;7619;48.562;8.910;2023-01-05T04:23:46;10.10;99.90
15044;DHT22;7619;48.562;8.910;2023-01-05T04:26:14;10.00;99.90
15044;DHT22;7619;48.562;8.910;2023-01-05T04:28:43;10.10;99.90
15044;DHT22;7619;48.562;8.910;2023-01-05T04:31:12;10.00;99.90
15044;DHT22;7619;48.562;8.910;2023-01-05T04:33:41;10.00;99.90
15044;DHT22;7619;48.562;8.910;2023-01-05T04:36:11;10.00;99.90
15044;DHT22;7619;48.562;8.910;2023-01-05T04:38:40;10.00;99.90
15044;DHT22;7619;48.562;8.910;2023-01-05T04:41:09;10.00;99.90
15044;DHT22;7619;48.562;8.910;2023-01-05T04:43:38;10.00;99.90
15044;DHT22;7619;48.562;8.910;2023-01-05T04:46:07;9.90;99.90
15044;DHT22;7619;48.562;8.910;2023-01-05T04:48:36;9.90;99.90
15044;DHT22;7619;48.562;8.910;2023-01-05T04:51:05;9.90;99.90
15044;DHT22;7619;48.562;8.910;2023-01-05T04:53:34;9.80;99.90
15044;DHT22;7619;48.562;8.910;2023-01-05T04:56:03;9.90;99.90
15044;DHT22;7619;48.562;8.910;2023-01-05T04:58:32;9.90;99.90
15044;DHT22;7619;48.562;8.910;2023-01-05T05:01:01;9.90;99.90
15044;DHT22;7619;48.562;8.910;2023-01-05T05:03:30;9.90;99.90
15044;DHT22;7619;48.562;8.910;2023-01-05T05:05:59;9.90;99.90
15044;DHT22;7619;48.562;8.910;2023-01-05T05:08:28;9.90;99.90
15044;DHT22;7619;48.562;8.910;2023-01-05T05:10:57;9.90;99.90
15044;DHT22;7619;48.562;8.910;2023-01-05T05:13:26;9.90;99.90
15044;DHT22;7619;48.562;8.910;2023-01-05T05:15:55;9.90;99.90
15044;DHT22;7619;48.562;8.910;2023-01-05T05:18:24;9.80;99.90
15044;DHT22;7619;48.562;8.910;2023-01-05T05:20:53;9.90;99.90
15044;DHT22;7619;48.562;8.910;2023-01-05T05:23:22;9.90;99.90
15044;DHT22;7619;48.562;8.910;2023-01-05T05:25:51;9.90;99.90
15044;DHT22;7619;48.562;8.910;2023-01-05T05:28:20;9.90;99.90
15044;DHT22;7619;48.562;8.910;2023-01-05T05:30:51;10.00;99.90
15044;DHT22;7619;48.562;8.910;2023-01-05T05:33:20;10.00;99.90
15044;DHT22;7619;48.562;8.910;2023-01-05T05:35:49;10.00;99.90
15044;DHT22;7619;48.562;8.910;2023-01-05T05:38:18;10.00;99.90
15044;DHT22;7619;48.562;8.910;2023-01-05T05:40:48;10.00;99.90
15044;DHT22;7619;48.562;8.910;2023-01-05T05:43:17;10.00;99.90
15044;DHT22;7619;48.562;8.910;2023-01-05T05:48:22;10.00;99.90
15044;DHT22;7619;48.562;8.910;2023-01-05T05:50:51;10.00;99.90
15044;DHT22;7619;48.562;8.910;2023-01-05T05:53:20;10.00;99.90
15044;DHT22;7619;48.562;8.910;2023-01-05T05:55:50;10.00;99.90
15044;DHT22;7619;48.562;8.910;2023-01-05T05:58:19;10.00;99.90
15044;DHT22;7619;48.562;8.910;2023-01-05T06:00:48;10.00;99.90
15044;DHT22;7619;48.562;8.910;2023-01-05T06:03:17;10.10;99.90
15044;DHT22;7619;48.562;8.910;2023-01-05T06:05:46;10.10;99.90
15044;DHT22;7619;48.562;8.910;2023-01-05T06:08:15;10.10;99.90
15044;DHT22;7619;48.562;8.910;2023-01-05T06:10:44;10.10;99.90
15044;DHT22;7619;48.562;8.910;2023-01-05T06:13:12;10.10;99.90
15044;DHT22;7619;48.562;8.910;2023-01-05T06:15:42;10.00;99.90
15044;DHT22;7619;48.562;8.910;2023-01-05T06:18:10;10.00;99.90
15044;DHT22;7619;48.562;8.910;2023-01-05T06:20:39;10.00;99.90
15044;DHT22;7619;48.562;8.910;2023-01-05T06:23:09;10.00;99.90
15044;DHT22;7619;48.562;8.910;2023-01-05T06:25:38;9.90;99.90
15044;DHT22;7619;48.562;8.910;2023-01-05T06:28:08;9.90;99.90
15044;DHT22;7619;48.562;8.910;2023-01-05T06:30:36;9.80;99.90
15044;DHT22;7619;48.562;8.910;2023-01-05T06:33:05;9.80;99.90
15044;DHT22;7619;48.562;8.910;2023-01-05T06:35:34;9.80;99.90
15044;DHT22;7619;48.562;8.910;2023-01-05T06:38:03;9.80;99.90
15044;DHT22;7619;48.562;8.910;2023-01-05T06:40:32;9.80;99.90
15044;DHT22;7619;48.562;8.910;2023-01-05T06:43:01;9.90;99.90
15044;DHT22;7619;48.562;8.910;2023-01-05T06:45:30;9.90;99.90
15044;DHT22;7619;48.562;8.910;2023-01-05T06:48:17;9.80;99.90
15044;DHT22;7619;48.562;8.910;2023-01-05T06:50:46;9.80;99.90
15044;DHT22;7619;48.562;8.910;2023-01-05T06:53:15;9.80;99.90
15044;DHT22;7619;48.562;8.910;2023-01-05T06:55:45;9.90;99.90
15044;DHT22;7619;48.562;8.910;2023-01-05T06:58:14;9.90;99.90
15044;DHT22;7619;48.562;8.910;2023-01-05T07:00:42;9.90;99.90
15044;DHT22;7619;48.562;8.910;2023-01-05T07:03:13;9.90;99.90
15044;DHT22;7619;48.562;8.910;2023-01-05T07:05:42;9.90;99.90
15044;DHT22;7619;48.562;8.910;2023-01-05T07:08:11;9.90;99.90
15044;DHT22;7619;48.562;8.910;2023-01-05T07:10:39;9.90;99.90
15044;DHT22;7619;48.562;8.910;2023-01-05T07:13:08;9.80;99.90
15044;DHT22;7619;48.562;8.910;2023-01-05T07:15:37;9.90;99.90
15044;DHT22;7619;48.562;8.910;2023-01-05T07:18:06;9.90;99.90
15044;DHT22;7619;48.562;8.910;2023-01-05T07:20:35;9.80;99.90
15044;DHT22;7619;48.562;8.910;2023-01-05T07:23:04;9.70;99.90
15044;DHT22;7619;48.562;8.910;2023-01-05T07:25:33;9.70;99.90
15044;DHT22;7619;48.562;8.910;2023-01-05T07:28:04;9.70;99.90
15044;DHT22;7619;48.562;8.910;2023-01-05T07:30:33;9.80;99.90
15044;DHT22;7619;48.562;8.910;2023-01-05T07:33:01;9.80;99.90
15044;DHT22;7619;48.562;8.910;2023-01-05T07:35:31;9.80;99.90
15044;DHT22;7619;48.562;8.910;2023-01-05T07:38:00;9.80;99.90
15044;DHT22;7619;48.562;8.910;2023-01-05T07:40:30;9.80;99.90
15044;DHT22;7619;48.562;8.910;2023-01-05T07:42:59;9.80;99.90
15044;DHT22;7619;48.562;8.910;2023-01-05T07:45:28;9.80;99.90
15044;DHT22;7619;48.562;8.910;2023-01-05T07:47:57;9.90;99.90
15044;DHT22;7619;48.562;8.910;2023-01-05T07:50:27;9.90;99.90
15044;DHT22;7619;48.562;8.910;2023-01-05T07:52:57;10.00;99.90
15044;DHT22;7619;48.562;8.910;2023-01-05T07:55:26;10.10;99.90
15044;DHT22;7619;48.562;8.910;2023-01-05T07:57:55;10.10;99.90
15044;DHT22;7619;48.562;8.910;2023-01-05T08:00:24;10.10;99.90
15044;DHT22;7619;48.562;8.910;2023-01-05T08:02:53;10.10;99.90
15044;DHT22;7619;48.562;8.910;2023-01-05T08:05:22;10.20;99.90
15044;DHT22;7619;48.562;8.910;2023-01-05T08:07:52;10.20;99.90
15044;DHT22;7619;48.562;8.910;2023-01-05T08:10:21;10.20;99.90
15044;DHT22;7619;48.562;8.910;2023-01-05T08:13:01;10.20;99.90
15044;DHT22;7619;48.562;8.910;2023-01-05T08:15:48;10.20;99.90
15044;DHT22;7619;48.562;8.910;2023-01-05T08:18:18;10.20;99.90
15044;DHT22;7619;48.562;8.910;2023-01-05T08:20:51;10.10;99.90
15044;DHT22;7619;48.562;8.910;2023-01-05T08:23:20;10.10;99.90
15044;DHT22;7619;48.562;8.910;2023-01-05T08:25:50;10.10;99.90
15044;DHT22;7619;48.562;8.910;2023-01-05T08:28:18;10.00;99.90
15044;DHT22;7619;48.562;8.910;2023-01-05T08:30:47;10.10;99.90
15044;DHT22;7619;48.562;8.910;2023-01-05T08:33:16;10.00;99.90
15044;DHT22;7619;48.562;8.910;2023-01-05T08:35:45;10.00;99.90
15044;DHT22;7619;48.562;8.910;2023-01-05T08:38:14;10.00;99.90
15044;DHT22;7619;48.562;8.910;2023-01-05T08:40:43;10.00;99.90
15044;DHT22;7619;48.562;8.910;2023-01-05T08:43:12;10.00;99.90
15044;DHT22;7619;48.562;8.910;2023-01-05T08:45:41;10.00;99.90
15044;DHT22;7619;48.562;8.910;2023-01-05T08:48:10;10.00;99.90
15044;DHT22;7619;48.562;8.910;2023-01-05T08:50:39;10.00;99.90
15044;DHT22;7619;48.562;8.910;2023-01-05T08:53:08;10.00;99.90
15044;DHT22;7619;48.562;8.910;2023-01-05T08:58:14;10.10;99.90
15044;DHT22;7619;48.562;8.910;2023-01-05T09:03:21;10.20;99.90
15044;DHT22;7619;48.562;8.910;2023-01-05T09:05:53;10.20;99.90
15044;DHT22;7619;48.562;8.910;2023-01-05T09:08:23;10.30;99.90
15044;DHT22;7619;48.562;8.910;2023-01-05T09:10:52;10.30;99.90
15044;DHT22;7619;48.562;8.910;2023-01-05T09:15:57;10.30;99.90
15044;DHT22;7619;48.562;8.910;2023-01-05T09:18:27;10.30;99.90
15044;DHT22;7619;48.562;8.910;2023-01-05T09:20:56;11.40;99.90
15044;DHT22;7619;48.562;8.910;2023-01-05T09:23:26;12.60;99.90
15044;DHT22;7619;48.562;8.910;2023-01-05T09:25:55;13.20;99.90
15044;DHT22;7619;48.562;8.910;2023-01-05T09:28:25;13.50;99.90
15044;DHT22;7619;48.562;8.910;2023-01-05T09:30:54;13.60;42.60
15044;DHT22;7619;48.562;8.910;2023-01-05T09:33:23;13.10;99.90
15044;DHT22;7619;48.562;8.910;2023-01-05T09:38:34;11.60;99.90
15044;DHT22;7619;48.562;8.910;2023-01-05T09:43:43;11.60;20.30
15044;DHT22;7619;48.562;8.910;2023-01-05T09:46:16;11.60;1.00
15044;DHT22;7619;48.562;8.910;2023-01-05T09:48:49;11.40;1.00
15044;DHT22;7619;48.562;8.910;2023-01-05T09:51:19;11.40;1.00
15044;DHT22;7619;48.562;8.910;2023-01-05T09:56:28;11.30;1.00
15044;DHT22;7619;48.562;8.910;2023-01-05T09:59:02;11.10;99.90
15044;DHT22;7619;48.562;8.910;2023-01-05T10:01:33;11.10;26.50
15044;DHT22;7619;48.562;8.910;2023-01-05T10:04:05;11.10;1.00
15044;DHT22;7619;48.562;8.910;2023-01-05T10:06:38;11.10;1.00
15044;DHT22;7619;48.562;8.910;2023-01-05T10:09:07;11.20;1.00
15044;DHT22;7619;48.562;8.910;2023-01-05T10:11:42;11.20;99.90
15044;DHT22;7619;48.562;8.910;2023-01-05T10:14:40;11.30;1.00
15044;DHT22;7619;48.562;8.910;2023-01-05T10:17:12;11.30;99.90
15044;DHT22;7619;48.562;8.910;2023-01-05T10:19:42;11.50;1.00
15044;DHT22;7619;48.562;8.910;2023-01-05T10:22:21;11.60;1.00
15044;DHT22;7619;48.562;8.910;2023-01-05T10:24:54;11.70;99.90
15044;DHT22;7619;48.562;8.910;2023-01-05T10:27:26;11.80;1.00
15044;DHT22;7619;48.562;8.910;2023-01-05T10:30:02;11.80;1.00
15044;DHT22;7619;48.562;8.910;2023-01-05T10:32:34;11.80;99.90
15044;DHT22;7619;48.562;8.910;2023-01-05T10:35:06;11.80;57.40
15044;DHT22;7619;48.562;8.910;2023-01-05T10:40:36;11.80;99.90
15044;DHT22;7619;48.562;8.910;2023-01-05T10:46:09;11.60;1.00
15044;DHT22;7619;48.562;8.910;2023-01-05T10:48:39;11.50;1.00
15044;DHT22;7619;48.562;8.910;2023-01-05T10:51:09;11.40;1.00
15044;DHT22;7619;48.562;8.910;2023-01-05T10:53:40;11.40;99.90
15044;DHT22;7619;48.562;8.910;2023-01-05T10:56:13;11.30;99.90
15044;DHT22;7619;48.562;8.910;2023-01-05T10:58:43;11.30;99.90
15044;DHT22;7619;48.562;8.910;2023-01-05T11:01:22;11.30;99.90
15044;DHT22;7619;48.562;8.910;2023-01-05T11:03:54;11.30;99.90
15044;DHT22;7619;48.562;8.910;2023-01-05T11:06:26;11.30;1.00
15044;DHT22;7619;48.562;8.910;2023-01-05T11:09:04;11.40;1.00
15044;DHT22;7619;48.562;8.910;2023-01-05T11:11:34;11.40;1.00
15044;DHT22;7619;48.562;8.910;2023-01-05T11:14:03;11.50;1.00
15044;DHT22;7619;48.562;8.910;2023-01-05T11:16:34;11.40;1.00
15044;DHT22;7619;48.562;8.910;2023-01-05T11:19:06;11.50;1.00
15044;DHT22;7619;48.562;8.910;2023-01-05T11:21:42;11.50;1.00
15044;DHT22;7619;48.562;8.910;2023-01-05T11:24:28;11.40;1.00
15044;DHT22;7619;48.562;8.910;2023-01-05T11:26:58;11.40;99.90
15044;DHT22;7619;48.562;8.910;2023-01-05T11:29:28;11.40;99.90
15044;DHT22;7619;48.562;8.910;2023-01-05T11:32:00;11.30;99.90
15044;DHT22;7619;48.562;8.910;2023-01-05T11:34:37;11.30;99.90
15044;DHT22;7619;48.562;8.910;2023-01-05T11:37:15;11.30;99.90
15044;DHT22;7619;48.562;8.910;2023-01-05T11:39:47;11.30;99.90
15044;DHT22;7619;48.562;8.910;2023-01-05T11:44:57;11.30;99.90
15044;DHT22;7619;48.562;8.910;2023-01-05T11:47:29;11.40;99.90
15044;DHT22;7619;48.562;8.910;2023-01-05T11:50:13;11.40;99.90
15044;DHT22;7619;48.562;8.910;2023-01-05T11:52:42;11.30;99.90
15044;DHT22;7619;48.562;8.910;2023-01-05T11:55:33;11.30;99.90
15044;DHT22;7619;48.562;8.910;2023-01-05T12:01:46;11.30;99.90
15044;DHT22;7619;48.562;8.910;2023-01-05T12:07:08;11.30;26.70
15044;DHT22;7619;48.562;8.910;2023-01-05T12:09:39;11.30;1.00
15044;DHT22;7619;48.562;8.910;2023-01-05T12:12:32;11.30;1.00
15044;DHT22;7619;48.562;8.910;2023-01-05T12:18:26;11.40;57.40
15044;DHT22;7619;48.562;8.910;2023-01-05T12:20:58;11.40;56.20
15044;DHT22;7619;48.562;8.910;2023-01-05T12:23:33;11.50;23.70
15044;DHT22;7619;48.562;8.910;2023-01-05T12:32:12;11.60;99.90
15044;DHT22;7619;48.562;8.910;2023-01-05T12:37:27;11.80;99.90
15044;DHT22;7619;48.562;8.910;2023-01-05T12:42:49;11.70;99.90
15044;DHT22;7619;48.562;8.910;2023-01-05T12:48:22;11.60;99.90
15044;DHT22;7619;48.562;8.910;2023-01-05T12:50:56;11.50;99.90
15044;DHT22;7619;48.562;8.910;2023-01-05T12:53:33;11.50;99.90
15044;DHT22;7619;48.562;8.910;2023-01-05T12:58:40;11.50;71.10
15044;DHT22;7619;48.562;8.910;2023-01-05T13:01:13;11.50;37.90
15044;DHT22;7619;48.562;8.910;2023-01-05T13:03:44;11.50;72.50
15044;DHT22;7619;48.562;8.910;2023-01-05T13:06:15;11.50;64.60
15044;DHT22;7619;48.562;8.910;2023-01-05T13:08:48;11.50;38.10
15044;DHT22;7619;48.562;8.910;2023-01-05T13:11:20;11.60;9.80
15044;DHT22;7619;48.562;8.910;2023-01-05T13:13:52;11.60;1.00
15044;DHT22;7619;48.562;8.910;2023-01-05T13:16:25;11.60;1.00
15044;DHT22;7619;48.562;8.910;2023-01-05T13:18:56;11.50;3.60
15044;DHT22;7619;48.562;8.910;2023-01-05T13:21:26;11.50;1.00
15044;DHT22;7619;48.562;8.910;2023-01-05T13:23:59;11.40;3.50
15044;DHT22;7619;48.562;8.910;2023-01-05T13:26:28;11.50;1.90
15044;DHT22;7619;48.562;8.910;2023-01-05T13:28:57;11.50;20.40
15044;DHT22;7619;48.562;8.910;2023-01-05T13:34:35;11.50;91.30
15044;DHT22;7619;48.562;8.910;2023-01-05T13:40:40;11.50;99.90
15044;DHT22;7619;48.562;8.910;2023-01-05T13:46:21;11.50;99.90
15044;DHT22;7619;48.562;8.910;2023-01-05T13:52:00;12.00;1.00
15044;DHT22;7619;48.562;8.910;2023-01-05T13:54:38;11.30;99.90
15044;DHT22;7619;48.562;8.910;2023-01-05T13:57:12;11.40;99.90
15044;DHT22;7619;48.562;8.910;2023-01-05T13:59:41;11.20;99.90
15044;DHT22;7619;48.562;8.910;2023-01-05T14:02:28;11.20;99.90
15044;DHT22;7619;48.562;8.910;2023-01-05T14:08:20;11.20;13.30
15044;DHT22;7619;48.562;8.910;2023-01-05T14:11:15;11.20;99.90
15044;DHT22;7619;48.562;8.910;2023-01-05T14:13:47;11.20;91.50
15044;DHT22;7619;48.562;8.910;2023-01-05T14:16:51;11.20;47.10
15044;DHT22;7619;48.562;8.910;2023-01-05T14:19:22;11.20;56.20
15044;DHT22;7619;48.562;8.910;2023-01-05T14:22:19;11.20;29.90
15044;DHT22;7619;48.562;8.910;2023-01-05T14:24:36;11.20;1.00
15044;DHT22;7619;48.562;8.910;2023-01-05T14:27:08;11.10;1.00
15044;DHT22;7619;48.562;8.910;2023-01-05T14:33:01;11.10;1.00
15044;DHT22;7619;48.562;8.910;2023-01-05T14:35:30;11.10;1.00
15044;DHT22;7619;48.562;8.910;2023-01-05T14:38:03;11.10;10.20
15044;DHT22;7619;48.562;8.910;2023-01-05T14:40:36;11.00;25.20
15044;DHT22;7619;48.562;8.910;2023-01-05T14:43:18;11.00;65.80
15044;DHT22;7619;48.562;8.910;2023-01-05T14:45:56;11.00;81.60
15044;DHT22;7619;48.562;8.910;2023-01-05T14:48:29;11.00;99.90
15044;DHT22;7619;48.562;8.910;2023-01-05T14:51:16;11.00;99.90
15044;DHT22;7619;48.562;8.910;2023-01-05T14:53:47;10.90;99.90
15044;DHT22;7619;48.562;8.910;2023-01-05T14:56:22;10.90;99.90
15044;DHT22;7619;48.562;8.910;2023-01-05T14:59:13;10.90;99.90
15044;DHT22;7619;48.562;8.910;2023-01-05T15:01:49;10.90;99.90
15044;DHT22;7619;48.562;8.910;2023-01-05T15:04:22;10.80;99.90
15044;DHT22;7619;48.562;8.910;2023-01-05T15:07:17;10.80;99.90
15044;DHT22;7619;48.562;8.910;2023-01-05T15:13:05;10.80;99.90
15044;DHT22;7619;48.562;8.910;2023-01-05T15:15:43;10.80;99.90
15044;DHT22;7619;48.562;8.910;2023-01-05T15:21:56;10.70;99.90
15044;DHT22;7619;48.562;8.910;2023-01-05T15:24:49;10.60;1.00
15044;DHT22;7619;48.562;8.910;2023-01-05T15:33:34;10.50;1.00
15044;DHT22;7619;48.562;8.910;2023-01-05T15:36:09;10.40;1.00
15044;DHT22;7619;48.562;8.910;2023-01-05T15:38:45;10.50;1.00
15044;DHT22;7619;48.562;8.910;2023-01-05T15:41:15;10.40;1.00
15044;DHT22;7619;48.562;8.910;2023-01-05T15:43:45;10.40;1.00
15044;DHT22;7619;48.562;8.910;2023-01-05T15:46:18;10.40;1.00
15044;DHT22;7619;48.562;8.910;2023-01-05T15:48:49;10.80;1.00
15044;DHT22;7619;48.562;8.910;2023-01-05T15:51:27;10.40;1.00
15044;DHT22;7619;48.562;8.910;2023-01-05T15:53:58;10.30;1.00
15044;DHT22;7619;48.562;8.910;2023-01-05T15:56:30;10.30;17.20
15044;DHT22;7619;48.562;8.910;2023-01-05T15:59:01;10.30;76.10
15044;DHT22;7619;48.562;8.910;2023-01-05T16:01:30;10.30;99.90
15044;DHT22;7619;48.562;8.910;2023-01-05T16:04:07;10.30;99.90
15044;DHT22;7619;48.562;8.910;2023-01-05T16:06:37;10.30;99.90
15044;DHT22;7619;48.562;8.910;2023-01-05T16:09:10;10.30;99.90
15044;DHT22;7619;48.562;8.910;2023-01-05T16:11:41;10.30;99.90
15044;DHT22;7619;48.562;8.910;2023-01-05T16:14:14;10.30;99.90
15044;DHT22;7619;48.562;8.910;2023-01-05T16:16:47;10.30;99.90
15044;DHT22;7619;48.562;8.910;2023-01-05T16:19:22;10.20;99.90
15044;DHT22;7619;48.562;8.910;2023-01-05T16:21:53;10.20;99.90
15044;DHT22;7619;48.562;8.910;2023-01-05T16:24:25;10.20;1.00
15044;DHT22;7619;48.562;8.910;2023-01-05T16:26:54;10.10;1.00
15044;DHT22;7619;48.562;8.910;2023-01-05T16:29:32;10.20;1.00
15044;DHT22;7619;48.562;8.910;2023-01-05T16:32:01;10.10;1.00
15044;DHT22;7619;48.562;8.910;2023-01-05T16:34:30;10.20;1.00
15044;DHT22;7619;48.562;8.910;2023-01-05T16:37:01;10.10;1.00
15044;DHT22;7619;48.562;8.910;2023-01-05T16:39:35;10.10;1.00
15044;DHT22;7619;48.562;8.910;2023-01-05T16:42:12;10.10;1.00
15044;DHT22;7619;48.562;8.910;2023-01-05T16:45:01;10.10;30.70
15044;DHT22;7619;48.562;8.910;2023-01-05T16:53:19;10.10;99.90
15044;DHT22;7619;48.562;8.910;2023-01-05T16:58:36;10.00;99.90
15044;DHT22;7619;48.562;8.910;2023-01-05T17:01:23;10.00;99.90
15044;DHT22;7619;48.562;8.910;2023-01-05T17:03:53;10.00;99.90
15044;DHT22;7619;48.562;8.910;2023-01-05T17:06:27;10.00;99.90
15044;DHT22;7619;48.562;8.910;2023-01-05T17:08:58;9.90;99.90
15044;DHT22;7619;48.562;8.910;2023-01-05T17:11:33;9.90;1.00
15044;DHT22;7619;48.562;8.910;2023-01-05T17:14:00;9.80;1.00
15044;DHT22;7619;48.562;8.910;2023-01-05T17:16:30;9.90;1.00
15044;DHT22;7619;48.562;8.910;2023-01-05T17:18:59;9.70;1.00
15044;DHT22;7619;48.562;8.910;2023-01-05T17:21:29;9.70;68.50
15044;DHT22;7619;48.562;8.910;2023-01-05T17:24:00;9.70;99.90
15044;DHT22;7619;48.562;8.910;2023-01-05T17:29:06;9.50;12.10
15044;DHT22;7619;48.562;8.910;2023-01-05T17:31:35;9.60;1.00
15044;DHT22;7619;48.562;8.910;2023-01-05T17:34:04;9.60;1.00
15044;DHT22;7619;48.562;8.910;2023-01-05T17:39:13;9.60;99.90
15044;DHT22;7619;48.562;8.910;2023-01-05T17:41:43;9.60;99.90
15044;DHT22;7619;48.562;8.910;2023-01-05T17:44:12;9.60;1.00
15044;DHT22;7619;48.562;8.910;2023-01-05T17:46:43;9.60;1.00
15044;DHT22;7619;48.562;8.910;2023-01-05T17:49:15;9.50;1.00
15044;DHT22;7619;48.562;8.910;2023-01-05T17:51:44;9.60;99.90
15044;DHT22;7619;48.562;8.910;2023-01-05T17:54:13;9.50;99.90
15044;DHT22;7619;48.562;8.910;2023-01-05T17:56:42;9.50;99.90
15044;DHT22;7619;48.562;8.910;2023-01-05T17:59:11;9.60;1.00
15044;DHT22;7619;48.562;8.910;2023-01-05T18:01:40;9.60;1.00
15044;DHT22;7619;48.562;8.910;2023-01-05T18:04:09;9.50;1.00
15044;DHT22;7619;48.562;8.910;2023-01-05T18:06:38;9.50;1.00
15044;DHT22;7619;48.562;8.910;2023-01-05T18:09:06;9.50;99.90